This is the latest recevied weather packets stored in our database for station/object DG5MNJ. If no packets are shown the sender has not sent any weather packets the latest 10 day(s).
| Time | Temp. | Humidity | Pressure | Rain* | Wind** | Luminosity | Snow |
|---|---|---|---|---|---|---|---|
| 1777264202 | 3.33° C | 77% | 1019 hPa | 0 mm | - | 26 W/m² | - |
| 1777262102 | 2.78° C | 79% | 1018.8 hPa | 0 mm | - | 0 W/m² | - |
| 1777257602 | 3.33° C | 77% | 1019 hPa | 0 mm | - | 0 W/m² | - |
| 1777257002 | 3.33° C | 75% | 1018.9 hPa | 0 mm | - | 0 W/m² | - |
| 1777256122 | 3.33° C | 74% | 1018.9 hPa | 0 mm | - | 0 W/m² | - |
| 1777255802 | 3.33° C | 73% | 1018.9 hPa | 0 mm | - | 0 W/m² | - |
| 1777254602 | 3.89° C | 76% | 1019 hPa | 0 mm | - | 0 W/m² | - |
| 1777251002 | 5° C | 71% | 1019.2 hPa | 0 mm | - | 0 W/m² | - |
| 1777246804 | 6.11° C | 68% | 1019.9 hPa | 0 mm | - | 0 W/m² | - |
| 1777246502 | 6.11° C | 70% | 1019.9 hPa | 0 mm | - | 0 W/m² | - |
| 1777245902 | 6.11° C | 71% | 1019.7 hPa | 0 mm | - | 0 W/m² | - |
| 1777244701 | 6.67° C | 70% | 1019.7 hPa | 0 mm | - | 0 W/m² | - |
| 1777243803 | 7.22° C | 68% | 1020.1 hPa | 0 mm | - | 0 W/m² | - |
| 1777243204 | 7.78° C | 68% | 1019.9 hPa | 0 mm | - | 0 W/m² | - |
| 1777242902 | 7.78° C | 67% | 1019.9 hPa | 0 mm | - | 0 W/m² | - |
| 1777241703 | 8.33° C | 65% | 1019.7 hPa | 0 mm | - | 0 W/m² | - |
| 1777239603 | 9.44° C | 61% | 1019.9 hPa | 0 mm | - | 0 W/m² | - |
| 1777236922 | 10.56° C | 56% | 1020.1 hPa | 0 mm | - | 0 W/m² | - |
| 1777233902 | 12.22° C | 53% | 1019.9 hPa | 0 mm | - | 0 W/m² | - |
| 1777233003 | 12.78° C | 52% | 1020 hPa | 0 mm | - | 0 W/m² | - |
| 1777232722 | 12.78° C | 51% | 1019.9 hPa | 0 mm | - | 0 W/m² | - |
| 1777232102 | 13.33° C | 50% | 1019.7 hPa | 0 mm | - | 0 W/m² | - |
| 1777229103 | 15° C | 43% | 1019.2 hPa | 0 mm | - | 0 W/m² | - |
| 1777228503 | 15.56° C | 43% | 1019.1 hPa | 0 mm | - | 0 W/m² | - |
| 1777227602 | 15.56° C | 41% | 1018.8 hPa | 0 mm | - | 2 W/m² | - |
* Rain latest hour (hover to see other rain measurements)
** Current wind speed in m/s (hover to see current wind gust speed)